Time;durP1;ratioP1;P1;durP2;ratioP2;P2;SDS_P1;SDS_P2;PMS_P1;PMS_P2;Temp;Humidity;BMP_temperature;BMP_pressure;BME280_temperature;BME280_humidity;BME280_pressure;Samples;Min_cycle;Max_cycle;Signal;HPM_P1;HPM_P2
2023/02/21 02:14:53;;;;;;;7.40;4.20;;;;;;;3.33;100.00;97460.38;106287;1254;61580;-74
2023/02/21 02:17:56;;;;;;;7.10;3.40;;;;;;;3.28;100.00;97467.09;106184;1253;75068;-76
2023/02/21 02:20:31;;;;;;;6.20;3.40;;;;;;;3.23;100.00;97466.05;106364;1254;69145;-72
2023/02/21 02:23:26;;;;;;;5.30;2.80;;;;;;;3.14;100.00;97468.33;106213;1257;73761;-75
2023/02/21 02:26:19;;;;;;;8.00;2.90;;;;;;;3.16;100.00;97474.40;106071;1259;63094;-73
2023/02/21 02:29:03;;;;;;;5.10;2.50;;;;;;;3.14;100.00;97470.13;106111;1254;60533;-75
2023/02/21 02:31:44;;;;;;;6.20;3.30;;;;;;;3.05;100.00;97467.64;105989;1260;73751;-69
2023/02/21 02:34:42;;;;;;;5.10;2.40;;;;;;;3.06;100.00;97476.45;106294;1254;71230;-72
2023/02/21 02:37:13;;;;;;;7.40;2.70;;;;;;;3.07;100.00;97477.30;106147;1257;73705;-74
2023/02/21 02:40:21;;;;;;;6.50;2.80;;;;;;;3.01;100.00;97474.58;106296;1253;61251;-73
2023/02/21 02:43:17;;;;;;;5.20;2.40;;;;;;;3.00;100.00;97479.77;106389;1254;61032;-73
2023/02/21 02:45:52;;;;;;;7.90;2.40;;;;;;;3.04;100.00;97473.75;106379;1254;74825;-75
2023/02/21 02:48:23;;;;;;;5.50;2.10;;;;;;;3.00;100.00;97467.88;106764;1254;68457;-77
2023/02/21 02:50:51;;;;;;;6.20;2.00;;;;;;;2.95;100.00;97473.95;107778;1253;73722;-77
2023/02/21 02:53:24;;;;;;;8.40;2.20;;;;;;;3.01;100.00;97477.90;107424;1262;61065;-71
2023/02/21 02:56:01;;;;;;;4.10;2.40;;;;;;;3.01;100.00;97472.80;106097;1254;60727;-71
2023/02/21 02:58:59;;;;;;;6.50;2.00;;;;;;;3.00;100.00;97476.63;106386;1254;75435;-72
2023/02/21 03:01:48;;;;;;;5.00;2.40;;;;;;;3.03;100.00;97483.49;106328;1254;71328;-72
2023/02/21 03:04:25;;;;;;;6.10;1.90;;;;;;;2.99;100.00;97485.65;106156;1254;71604;-73
2023/02/21 03:06:57;;;;;;;6.10;1.90;;;;;;;3.02;100.00;97484.00;106232;1254;61661;-72
2023/02/21 03:09:30;;;;;;;4.20;1.70;;;;;;;3.00;100.00;97491.64;106390;1257;60426;-75
2023/02/21 03:12:07;;;;;;;7.20;1.90;;;;;;;2.97;100.00;97489.36;106386;1256;73928;-75
2023/02/21 03:14:43;;;;;;;6.80;2.50;;;;;;;3.01;99.44;97497.64;106673;1257;70527;-72
2023/02/21 03:17:14;;;;;;;6.40;2.30;;;;;;;2.99;99.57;97500.38;106223;1259;72141;-73
2023/02/21 03:19:42;;;;;;;6.60;1.90;;;;;;;2.98;99.71;97505.14;106075;1254;61261;-74
2023/02/21 03:22:15;;;;;;;8.90;5.40;;;;;;;3.01;98.86;97509.00;106117;1252;61348;-79
2023/02/21 03:24:44;;;;;;;4.60;2.30;;;;;;;3.01;98.93;97511.95;106339;1259;73491;-77
2023/02/21 03:27:12;;;;;;;7.90;2.70;;;;;;;3.00;99.34;97512.99;106324;1258;68600;-75
2023/02/21 03:29:48;;;;;;;6.40;2.40;;;;;;;2.98;99.34;97516.87;106127;1259;71893;-75
2023/02/21 03:34:55;;;;;;;5.60;1.90;;;;;;;3.07;99.14;97511.63;105941;1253;61128;-71
2023/02/21 03:37:42;;;;;;;4.30;1.90;;;;;;;3.11;99.24;97514.91;106158;1255;72031;-70
2023/02/21 03:40:18;;;;;;;7.20;2.00;;;;;;;3.12;98.78;97517.56;105852;1253;68515;-72
2023/02/21 03:42:50;;;;;;;6.70;1.90;;;;;;;3.14;97.62;97515.55;106016;1253;72894;-68
2023/02/21 03:45:20;;;;;;;3.40;1.60;;;;;;;3.13;98.02;97517.42;106215;1259;62939;-72
2023/02/21 03:48:03;;;;;;;;;;;;;;;3.16;97.92;97514.64;105928;1254;61213;-70
2023/02/21 03:50:33;;;;;;;3.90;1.70;;;;;;;3.11;97.45;97520.77;105842;1254;73592;-69
2023/02/21 03:53:01;;;;;;;7.50;2.10;;;;;;;3.12;97.18;97516.67;105927;1260;71344;-70
2023/02/21 03:55:30;;;;;;;9.30;2.70;;;;;;;3.13;97.44;97519.13;106059;1259;72280;-68
2023/02/21 03:58:00;;;;;;;6.10;2.20;;;;;;;3.06;97.76;97520.31;105923;1254;60548;-69
2023/02/21 04:00:29;;;;;;;9.30;2.60;;;;;;;3.04;97.11;97526.00;106093;1256;61324;-69
2023/02/21 04:02:57;;;;;;;6.00;2.30;;;;;;;3.08;96.53;97520.97;105940;1254;73719;-72
2023/02/21 04:05:40;;;;;;;4.40;2.20;;;;;;;3.05;96.21;97519.22;106356;1254;71557;-72
2023/02/21 04:08:09;;;;;;;7.90;2.20;;;;;;;3.03;96.29;97515.14;106465;1257;71094;-71
2023/02/21 04:10:38;;;;;;;5.80;1.90;;;;;;;3.07;96.09;97509.04;106085;1255;62165;-68
2023/02/21 04:13:22;;;;;;;4.80;2.00;;;;;;;3.10;96.83;97509.73;105828;1254;60412;-65
2023/02/21 04:15:55;;;;;;;5.70;2.00;;;;;;;3.03;96.54;97500.51;105916;1254;73033;-70
2023/02/21 04:18:25;;;;;;;7.20;1.90;;;;;;;3.02;96.27;97496.15;106226;1254;70010;-71
2023/02/21 04:20:59;;;;;;;7.90;2.40;;;;;;;3.06;96.30;97500.62;106173;1254;71721;-72
2023/02/21 04:23:27;;;;;;;6.00;2.10;;;;;;;3.01;96.26;97501.66;105975;1259;61219;-74
2023/02/21 04:25:58;;;;;;;6.10;1.80;;;;;;;2.99;95.42;97504.73;106122;1259;61344;-72
2023/02/21 04:28:37;;;;;;;8.00;2.40;;;;;;;3.05;95.32;97501.37;105962;1260;73950;-74
2023/02/21 04:31:06;;;;;;;7.90;2.10;;;;;;;3.09;95.06;97505.35;105888;1260;70591;-71
2023/02/21 04:33:35;;;;;;;5.40;2.20;;;;;;;3.02;95.14;97503.62;105890;1259;73843;-72
2023/02/21 04:36:05;;;;;;;7.70;2.00;;;;;;;2.97;95.19;97502.09;106000;1254;62725;-71
2023/02/21 04:38:40;;;;;;;5.60;2.10;;;;;;;3.02;94.97;97506.09;105569;1254;60533;-70
2023/02/21 04:41:08;;;;;;;7.50;2.80;;;;;;;3.03;94.83;97505.98;105591;1257;74090;-70
2023/02/21 04:43:37;;;;;;;6.50;2.40;;;;;;;2.97;95.17;97502.66;105514;1262;69240;-72
2023/02/21 04:46:05;;;;;;;6.50;2.40;;;;;;;2.97;95.26;97504.88;105811;1259;72943;-69
2023/02/21 04:48:34;;;;;;;6.00;1.90;;;;;;;3.02;95.09;97506.16;105961;1254;62693;-66
2023/02/21 04:51:02;;;;;;;7.70;2.60;;;;;;;2.98;95.19;97503.23;105793;1254;60671;-68
2023/02/21 04:53:43;;;;;;;4.90;2.00;;;;;;;2.92;94.74;97508.46;105807;1255;73939;-67
2023/02/21 04:56:12;;;;;;;5.20;2.30;;;;;;;2.97;94.45;97515.79;105643;1259;72833;-67
2023/02/21 04:58:41;;;;;;;4.80;2.00;;;;;;;3.01;94.55;97523.58;105780;1257;72009;-67
2023/02/21 05:01:14;;;;;;;7.80;2.00;;;;;;;2.99;94.86;97524.67;105698;1257;62986;-67
2023/02/21 05:03:43;;;;;;;5.20;2.00;;;;;;;3.00;94.61;97527.97;105874;1258;61293;-68
2023/02/21 05:06:21;;;;;;;10.60;2.30;;;;;;;2.97;94.58;97527.64;105650;1260;75436;-67
2023/02/21 05:08:49;;;;;;;7.20;2.30;;;;;;;2.96;94.76;97531.29;105532;1260;71351;-69
2023/02/21 05:11:18;;;;;;;5.60;2.60;;;;;;;3.01;94.79;97533.64;105556;1255;71725;-69
2023/02/21 05:13:47;;;;;;;8.50;2.70;;;;;;;3.03;93.79;97534.18;105738;1259;61046;-67
2023/02/21 05:16:20;;;;;;;5.00;1.90;;;;;;;2.96;94.49;97530.92;105547;1260;60577;-68
2023/02/21 05:18:49;;;;;;;6.10;2.10;;;;;;;2.96;94.60;97535.93;105726;1258;74757;-69
2023/02/21 05:21:18;;;;;;;8.60;1.80;;;;;;;3.01;94.00;97535.21;106237;1259;71549;-68
2023/02/21 05:23:55;;;;;;;7.10;2.10;;;;;;;3.03;94.15;97534.70;106044;1257;73880;-67
2023/02/21 05:26:29;;;;;;;7.00;2.20;;;;;;;2.96;93.97;97537.19;105828;1258;60533;-70
2023/02/21 05:28:58;;;;;;;6.80;2.50;;;;;;;2.96;93.88;97533.10;106153;1255;60367;-67
2023/02/21 05:31:27;;;;;;;5.90;1.80;;;;;;;3.03;93.47;97526.84;105619;1261;72853;-72
2023/02/21 05:33:56;;;;;;;8.40;2.30;;;;;;;3.00;93.16;97523.84;105737;1258;69531;-69
2023/02/21 05:36:25;;;;;;;8.50;2.70;;;;;;;3.01;93.32;97530.16;105604;1260;73850;-68
2023/02/21 05:38:54;;;;;;;4.70;2.40;;;;;;;3.07;92.92;97527.60;105769;1253;61365;-68
2023/02/21 05:41:23;;;;;;;3.90;1.90;;;;;;;3.10;92.62;97530.69;105825;1256;60459;-70
2023/02/21 05:43:52;;;;;;;7.10;1.80;;;;;;;3.14;93.11;97526.76;105817;1257;74038;-72
2023/02/21 05:46:24;;;;;;;5.30;2.20;;;;;;;3.13;93.18;97526.91;105758;1257;70004;-71
2023/02/21 05:48:53;;;;;;;8.50;3.50;;;;;;;3.18;93.32;97526.34;105570;1255;269499;-73
2023/02/21 05:53:29;;;;;;;6.20;1.80;;;;;;;3.28;92.67;97528.32;102603;1297;601057;-69
2023/02/21 05:56:01;;;;;;;9.10;2.70;;;;;;;3.28;92.64;97531.12;104797;1268;61434;-71
2023/02/21 05:58:30;;;;;;;8.40;2.30;;;;;;;3.38;92.53;97531.61;104942;1269;61527;-70
2023/02/21 06:00:58;;;;;;;5.50;2.00;;;;;;;3.38;91.66;97528.41;105070;1274;71557;-73
2023/02/21 06:03:28;;;;;;;5.50;2.40;;;;;;;3.40;90.68;97532.94;105075;1269;71149;-72
2023/02/21 06:05:57;;;;;;;7.00;2.10;;;;;;;3.48;90.64;97535.48;104869;1268;186612;-72
2023/02/21 06:08:28;;;;;;;7.60;3.00;;;;;;;3.50;90.57;97534.55;105150;1269;61333;-72
2023/02/21 06:10:57;;;;;;;5.40;3.10;;;;;;;3.49;90.82;97535.23;105188;1265;61143;-74
2023/02/21 06:13:25;;;;;;;7.90;3.10;;;;;;;3.56;91.05;97535.09;105047;1265;72268;-69
2023/02/21 06:15:54;;;;;;;7.10;2.50;;;;;;;3.62;90.63;97539.30;104954;1270;71246;-71
2023/02/21 06:18:22;;;;;;;5.80;2.50;;;;;;;3.64;90.39;97538.83;105833;1268;71829;-72
2023/02/21 06:20:52;;;;;;;8.90;3.30;;;;;;;3.70;89.96;97545.98;106876;1268;63275;-71
2023/02/21 06:23:21;;;;;;;9.10;3.30;;;;;;;3.79;90.47;97551.66;107677;1260;61330;-73
2023/02/21 06:25:49;;;;;;;9.90;2.90;;;;;;;3.81;90.84;97557.98;107723;1259;70748;-76
2023/02/21 06:28:18;;;;;;;5.10;2.60;;;;;;;3.86;90.77;97560.65;107556;1259;68268;-71
2023/02/21 06:30:46;;;;;;;5.90;2.10;;;;;;;3.97;89.78;97560.42;106518;1256;71032;-72
2023/02/21 06:33:19;;;;;;;8.90;3.00;;;;;;;4.01;89.47;97565.94;108345;1256;60596;-72
2023/02/21 06:35:47;;;;;;;6.60;2.30;;;;;;;4.04;89.03;97569.05;107074;1256;60454;-71
2023/02/21 06:38:17;;;;;;;9.50;3.10;;;;;;;4.13;88.98;97563.68;106504;1260;73728;-72
2023/02/21 06:40:45;;;;;;;9.80;3.20;;;;;;;4.16;89.08;97566.64;106454;1260;68102;-71
2023/02/21 06:43:14;;;;;;;9.40;3.00;;;;;;;4.21;88.62;97576.09;106670;1255;73710;-70
2023/02/21 06:45:42;;;;;;;6.60;2.50;;;;;;;4.26;89.50;97579.63;106612;1256;59855;-72
2023/02/21 06:48:14;;;;;;;7.00;2.20;;;;;;;4.29;89.16;97579.66;106742;1254;59313;-72
2023/02/21 06:50:43;;;;;;;7.30;2.50;;;;;;;4.31;88.44;97579.55;107872;1255;70962;-72
2023/02/21 06:53:12;;;;;;;7.10;2.50;;;;;;;4.38;88.07;97578.25;109139;1254;70388;-71
2023/02/21 06:55:41;;;;;;;3.20;1.50;;;;;;;4.35;87.50;97575.46;109278;1254;71962;-71
2023/02/21 06:58:09;;;;;;;5.20;2.10;;;;;;;4.38;87.05;97580.70;109122;1254;60755;-69
2023/02/21 07:00:40;;;;;;;5.00;2.20;;;;;;;4.46;87.26;97579.19;108730;1258;59743;-73
2023/02/21 07:03:08;;;;;;;8.40;2.90;;;;;;;4.45;87.06;97579.81;108243;1256;73003;-70
2023/02/21 07:05:37;;;;;;;7.60;2.60;;;;;;;4.52;87.45;97579.51;108352;1255;69464;-69
2023/02/21 07:08:06;;;;;;;8.30;2.10;;;;;;;4.62;85.94;97570.98;108511;1256;71691;-71
2023/02/21 07:10:39;;;;;;;6.60;2.40;;;;;;;4.64;85.46;97575.02;108618;1254;59343;-70
2023/02/21 07:13:07;;;;;;;5.70;2.60;;;;;;;4.65;85.05;97574.16;107360;1256;61432;-68
2023/02/21 07:15:35;;;;;;;5.00;2.30;;;;;;;4.75;84.30;97575.33;108196;1257;72627;-70
2023/02/21 07:18:08;;;;;;;4.10;2.10;;;;;;;4.76;84.48;97572.31;109035;1256;70086;-70
2023/02/21 07:20:37;;;;;;;4.70;2.00;;;;;;;4.69;84.77;97567.50;108945;1255;70630;-71
2023/02/21 07:23:04;;;;;;;8.00;2.70;;;;;;;4.68;84.09;97568.17;107771;1256;60064;-69
2023/02/21 07:25:33;;;;;;;4.70;2.10;;;;;;;4.76;84.11;97567.73;108198;1258;59480;-70
2023/02/21 07:28:03;;;;;;;8.20;2.60;;;;;;;4.78;83.93;97564.08;108489;1256;73026;-70
2023/02/21 07:30:33;;;;;;;5.60;2.60;;;;;;;4.71;83.91;97566.63;107977;1256;69470;-67
2023/02/21 07:33:03;;;;;;;8.50;3.10;;;;;;;4.74;83.79;97565.37;107035;1258;72563;-68
2023/02/21 07:35:31;;;;;;;8.50;2.80;;;;;;;4.77;83.68;97562.08;105719;1260;59243;-69
2023/02/21 07:37:59;;;;;;;6.90;2.90;;;;;;;4.73;83.74;97558.88;105602;1256;60601;-69
2023/02/21 07:40:28;;;;;;;7.80;2.30;;;;;;;4.72;83.59;97553.16;105801;1261;73326;-68
2023/02/21 07:42:57;;;;;;;6.70;2.50;;;;;;;4.81;83.63;97551.17;105521;1261;69117;-70
2023/02/21 07:45:25;;;;;;;6.60;2.30;;;;;;;4.86;83.34;97554.62;105554;1258;72083;-70
2023/02/21 07:47:54;;;;;;;7.00;2.30;;;;;;;4.91;84.12;97549.13;105626;1258;61549;-70
2023/02/21 07:50:23;;;;;;;7.80;2.80;;;;;;;5.00;83.55;97554.08;105537;1261;61573;-68
2023/02/21 07:52:52;;;;;;;4.30;2.40;;;;;;;5.03;83.45;97551.16;105510;1259;74392;-69
2023/02/21 07:55:20;;;;;;;5.80;2.40;;;;;;;5.15;82.41;97553.48;105652;1258;69394;-71
2023/02/21 07:57:48;;;;;;;6.60;2.10;;;;;;;5.27;82.13;97548.02;105833;1261;72921;-68
2023/02/21 08:00:18;;;;;;;8.60;2.50;;;;;;;5.30;81.08;97546.86;105460;1254;60299;-70
2023/02/21 08:02:49;;;;;;;5.10;2.40;;;;;;;5.42;81.70;97548.58;105538;1258;61416;-71
2023/02/21 08:05:18;;;;;;;10.20;2.90;;;;;;;5.54;81.48;97547.31;105651;1254;72070;-69
2023/02/21 08:07:47;;;;;;;6.60;2.30;;;;;;;5.60;80.55;97558.07;105610;1259;69719;-69
2023/02/21 08:10:21;;;;;;;8.50;2.90;;;;;;;5.63;80.26;97554.36;105631;1258;72687;-70
2023/02/21 08:12:53;;;;;;;6.40;2.50;;;;;;;5.61;79.91;97562.13;105443;1271;60272;-69
2023/02/21 08:15:22;;;;;;;6.30;2.80;;;;;;;5.69;79.36;97563.33;105614;1256;59652;-70
2023/02/21 08:17:50;;;;;;;5.30;2.70;;;;;;;5.69;78.98;97554.50;105374;1262;74176;-71
2023/02/21 08:20:19;;;;;;;8.50;3.30;;;;;;;5.62;79.02;97556.83;105510;1260;70226;-70
2023/02/21 08:22:47;;;;;;;6.50;2.50;;;;;;;5.57;79.02;97552.52;105731;1260;73772;-71
2023/02/21 08:25:17;;;;;;;7.70;2.60;;;;;;;5.66;78.93;97559.29;105451;1260;62206;-67
2023/02/21 08:27:47;;;;;;;8.40;3.60;;;;;;;5.77;78.62;97555.89;105530;1258;61255;-70
2023/02/21 08:30:17;;;;;;;7.60;2.60;;;;;;;5.80;78.22;97561.03;105805;1258;73263;-70
2023/02/21 08:32:47;;;;;;;7.20;3.00;;;;;;;5.82;78.70;97555.70;105701;1257;70149;-69
2023/02/21 08:35:16;;;;;;;8.70;2.90;;;;;;;5.86;78.71;97557.02;105861;1256;73610;-69
2023/02/21 08:37:48;;;;;;;6.60;3.40;;;;;;;6.00;78.08;97558.40;105744;1260;61052;-70
2023/02/21 08:40:19;;;;;;;9.10;3.20;;;;;;;6.10;77.24;97558.55;105686;1258;61595;-68
2023/02/21 08:42:50;;;;;;;7.70;3.60;;;;;;;6.05;76.77;97547.61;105827;1258;72153;-68
2023/02/21 08:45:22;;;;;;;6.20;2.20;;;;;;;5.90;76.22;97549.23;105485;1260;71641;-69
2023/02/21 08:47:52;;;;;;;7.10;2.80;;;;;;;5.79;76.30;97549.10;105791;1257;72979;-71
2023/02/21 08:50:21;;;;;;;7.30;2.90;;;;;;;5.74;75.40;97552.54;105533;1257;60473;-71
2023/02/21 08:52:50;;;;;;;10.70;3.30;;;;;;;5.64;76.27;97554.75;105767;1258;59565;-70
2023/02/21 08:55:19;;;;;;;6.70;2.70;;;;;;;5.50;77.08;97549.96;105981;1258;73267;-70
2023/02/21 08:57:48;;;;;;;4.80;2.30;;;;;;;5.46;77.61;97545.38;106112;1254;70985;-70
2023/02/21 09:00:17;;;;;;;4.50;2.20;;;;;;;5.42;77.63;97552.63;105576;1268;72561;-68
2023/02/21 09:02:48;;;;;;;7.80;2.70;;;;;;;5.31;78.92;97552.99;105896;1254;61600;-69
2023/02/21 09:05:23;;;;;;;4.70;2.20;;;;;;;5.28;79.75;97559.55;105467;1261;61466;-71
2023/02/21 09:07:54;;;;;;;6.50;2.90;;;;;;;5.39;80.66;97558.08;105825;1255;72416;-70
2023/02/21 09:10:24;;;;;;;10.80;2.80;;;;;;;5.44;81.01;97561.98;105708;1262;71016;-70
2023/02/21 09:12:55;;;;;;;6.10;2.10;;;;;;;5.43;80.97;97561.77;105903;1262;70735;-71
2023/02/21 09:15:25;;;;;;;6.90;2.30;;;;;;;5.53;81.15;97562.17;105977;1257;62769;-72
2023/02/21 09:17:54;;;;;;;5.50;2.60;;;;;;;5.64;80.68;97563.94;105865;1254;60473;-72
2023/02/21 09:20:23;;;;;;;5.30;2.50;;;;;;;5.64;80.86;97557.33;105637;1261;74001;-71
2023/02/21 09:22:52;;;;;;;9.90;3.20;;;;;;;5.62;80.75;97555.73;105828;1265;68750;-71
2023/02/21 09:25:23;;;;;;;5.60;2.40;;;;;;;5.63;80.57;97552.10;105812;1268;72625;-71
2023/02/21 09:27:57;;;;;;;5.40;2.40;;;;;;;5.82;80.47;97548.55;105876;1255;61111;-70
2023/02/21 09:30:28;;;;;;;6.60;3.40;;;;;;;6.03;80.01;97553.55;105872;1257;61267;-72
2023/02/21 09:32:59;;;;;;;9.20;3.20;;;;;;;6.23;79.62;97552.46;105902;1257;73784;-71
2023/02/21 09:35:29;;;;;;;5.00;2.70;;;;;;;6.42;78.19;97545.59;105766;1255;71249;-70
2023/02/21 09:37:59;;;;;;;7.90;3.40;;;;;;;6.48;77.82;97540.39;105611;1260;71997;-71
2023/02/21 09:40:56;;;;;;;4.60;2.80;;;;;;;6.57;77.28;97543.31;105763;1266;61639;-72
2023/02/21 09:43:36;;;;;;;9.40;3.30;;;;;;;6.56;75.66;97537.98;105462;1254;61110;-69
2023/02/21 09:46:18;;;;;;;9.10;2.40;;;;;;;6.46;75.92;97539.81;105706;1254;72029;-71
2023/02/21 09:48:54;;;;;;;7.00;3.10;;;;;;;6.50;76.33;97543.48;105543;1260;69542;-71
2023/02/21 09:51:24;;;;;;;9.40;3.00;;;;;;;6.61;76.31;97543.66;105671;1260;72784;-71
2023/02/21 09:53:56;;;;;;;5.80;2.50;;;;;;;6.61;75.79;97544.02;105805;1259;60080;-72
2023/02/21 09:56:33;;;;;;;5.20;2.60;;;;;;;6.56;74.63;97544.19;105285;1259;60087;-69
2023/02/21 09:59:03;;;;;;;6.00;2.70;;;;;;;6.50;74.29;97550.50;105679;1254;73262;-72
2023/02/21 10:02:09;;;;;;;7.20;2.70;;;;;;;6.54;74.03;97550.23;105536;1255;70596;-71
2023/02/21 10:05:14;;;;;;;4.30;1.90;;;;;;;6.50;73.86;97551.23;105419;1261;72946;-71
2023/02/21 10:07:48;;;;;;;;;;;;;;;6.39;73.49;97556.01;105670;1258;60538;-70
2023/02/21 10:10:25;;;;;;;6.60;2.60;;;;;;;6.37;72.77;97554.85;105839;1254;60528;-70
2023/02/21 10:12:57;;;;;;;6.90;2.20;;;;;;;6.28;72.89;97564.91;105724;1257;73612;-69
2023/02/21 10:15:40;;;;;;;3.70;1.80;;;;;;;6.05;73.78;97567.23;105648;1259;70020;-71
2023/02/21 10:18:24;;;;;;;8.80;2.50;;;;;;;5.75;75.55;97576.98;105439;1259;72504;-71
2023/02/21 10:20:58;;;;;;;6.10;2.00;;;;;;;5.54;77.59;97582.92;105478;1261;60518;-71
2023/02/21 10:23:34;;;;;;;4.50;1.80;;;;;;;5.47;79.43;97588.66;105743;1267;60540;-72
2023/02/21 10:26:08;;;;;;;5.80;2.30;;;;;;;5.28;80.86;97601.35;105839;1265;73910;-72
2023/02/21 10:28:36;;;;;;;7.80;5.10;;;;;;;5.03;82.22;97617.15;105760;1259;70121;-73
2023/02/21 10:31:17;;;;;;;5.20;1.80;;;;;;;4.89;83.82;97611.96;105443;1258;71733;-72
2023/02/21 10:33:45;;;;;;;5.50;2.50;;;;;;;4.80;84.72;97603.20;105724;1259;60364;-71
2023/02/21 10:36:21;;;;;;;5.40;2.10;;;;;;;4.64;85.76;97601.33;105347;1261;60426;-70
2023/02/21 10:39:06;;;;;;;4.30;2.20;;;;;;;4.54;86.09;97598.49;105422;1261;74586;-71
2023/02/21 10:41:36;;;;;;;6.50;2.30;;;;;;;4.56;86.57;97598.39;105829;1258;70615;-71
2023/02/21 10:44:09;;;;;;;7.00;2.40;;;;;;;4.52;87.27;97594.43;105364;1254;73835;-72
2023/02/21 10:46:44;;;;;;;5.40;2.20;;;;;;;4.56;87.88;97595.27;105723;1260;61999;-72
2023/02/21 10:49:16;;;;;;;5.50;1.80;;;;;;;4.70;87.80;97596.91;105663;1259;60555;-71
2023/02/21 10:51:44;;;;;;;6.40;2.50;;;;;;;4.75;88.07;97590.21;105742;1254;74900;-71
2023/02/21 10:54:20;;;;;;;8.20;3.90;;;;;;;4.80;88.24;97582.48;105687;1259;71286;-71
2023/02/21 10:56:51;;;;;;;6.30;3.00;;;;;;;4.93;88.17;97582.02;105707;1258;71848;-71
2023/02/21 10:59:32;;;;;;;8.80;2.80;;;;;;;4.98;88.28;97578.11;105674;1260;61680;-67
2023/02/21 11:02:01;;;;;;;4.90;2.90;;;;;;;5.11;87.89;97582.30;105584;1256;60735;-70
2023/02/21 11:04:33;;;;;;;5.20;2.20;;;;;;;5.14;87.54;97585.13;105603;1259;71974;-72
2023/02/21 11:07:07;;;;;;;6.80;2.60;;;;;;;5.18;87.22;97585.73;105620;1259;69505;-67
2023/02/21 11:09:39;;;;;;;5.60;2.70;;;;;;;5.27;86.99;97591.95;105264;1255;72483;-71
2023/02/21 11:12:29;;;;;;;9.00;3.20;;;;;;;5.24;87.01;97586.53;105497;1260;60809;-72
2023/02/21 11:14:58;;;;;;;8.50;3.20;;;;;;;5.17;87.26;97593.91;105775;1254;60507;-71
2023/02/21 11:17:28;;;;;;;10.50;3.20;;;;;;;5.19;87.09;97598.19;105547;1259;73937;-70
2023/02/21 11:20:13;;;;;;;8.40;3.30;;;;;;;5.23;87.04;97600.40;105480;1255;69825;-72
2023/02/21 11:22:44;;;;;;;9.40;2.60;;;;;;;5.15;87.06;97602.91;105265;1254;72256;-70
2023/02/21 11:25:32;;;;;;;4.80;2.10;;;;;;;5.08;86.88;97604.92;105623;1260;60874;-72
2023/02/21 11:28:13;;;;;;;4.70;2.50;;;;;;;5.10;86.87;97610.68;105759;1254;61504;-71
2023/02/21 11:30:46;;;;;;;4.00;2.10;;;;;;;5.11;86.14;97613.85;105800;1258;74906;-72
2023/02/21 11:33:20;;;;;;;5.80;2.20;;;;;;;5.07;85.73;97610.33;105763;1260;70346;-73
2023/02/21 11:35:51;;;;;;;4.30;2.60;;;;;;;5.13;86.34;97619.66;105334;1254;73006;-72
2023/02/21 11:38:35;;;;;;;5.50;2.30;;;;;;;5.20;85.98;97624.72;105803;1254;60509;-71
2023/02/21 11:41:16;;;;;;;4.80;1.90;;;;;;;5.31;86.87;97621.02;105790;1254;60505;-72
2023/02/21 11:43:45;;;;;;;3.70;1.80;;;;;;;5.48;86.02;97618.14;105515;1254;74851;-71
2023/02/21 11:46:38;;;;;;;3.80;2.00;;;;;;;5.54;85.72;97622.63;105576;1260;71721;-73
2023/02/21 11:49:13;;;;;;;5.80;3.00;;;;;;;5.61;85.32;97621.52;105637;1254;74297;-70
2023/02/21 11:51:46;;;;;;;6.20;2.40;;;;;;;5.74;85.23;97619.79;105388;1255;61459;-70
2023/02/21 11:54:15;;;;;;;5.20;2.20;;;;;;;5.75;84.50;97628.83;105533;1258;61191;-69
2023/02/21 11:57:03;;;;;;;3.10;2.60;;;;;;;5.70;84.36;97629.60;105418;1254;72471;-71
2023/02/21 12:00:22;;;;;;;4.70;2.00;;;;;;;5.66;84.81;97622.44;105625;1259;70274;-72
2023/02/21 12:02:54;;;;;;;4.40;2.20;;;;;;;5.58;84.28;97619.67;105119;1261;71785;-71
2023/02/21 12:05:44;;;;;;;4.80;2.20;;;;;;;5.59;85.76;97629.34;105417;1254;62201;-72
2023/02/21 12:08:37;;;;;;;8.30;3.00;;;;;;;5.65;84.52;97633.20;105665;1260;60339;-73
2023/02/21 12:11:13;;;;;;;5.20;2.20;;;;;;;5.56;84.22;97633.04;106162;1254;73407;-73
2023/02/21 12:14:06;;;;;;;4.70;2.20;;;;;;;5.53;84.60;97638.48;106095;1257;69443;-70
2023/02/21 12:17:02;;;;;;;7.50;3.00;;;;;;;5.57;84.42;97634.50;106064;1254;72258;-69
2023/02/21 12:19:41;;;;;;;6.60;2.50;;;;;;;5.54;84.60;97632.73;105700;1255;60426;-70
2023/02/21 12:22:19;;;;;;;3.10;2.00;;;;;;;5.61;84.91;97627.62;105906;1259;60581;-71
2023/02/21 12:25:15;;;;;;;6.80;3.50;;;;;;;5.84;85.00;97622.39;105894;1258;72845;-70
2023/02/21 12:27:54;;;;;;;5.40;2.10;;;;;;;6.10;83.86;97622.35;105974;1254;69658;-70
2023/02/21 12:31:02;;;;;;;4.10;2.00;;;;;;;6.13;82.59;97620.75;105770;1254;71580;-70
2023/02/21 12:33:46;;;;;;;5.00;2.30;;;;;;;6.14;82.80;97627.93;105666;1259;61230;-71
2023/02/21 12:36:33;;;;;;;6.50;2.50;;;;;;;6.18;82.68;97644.19;105843;1260;60422;-70
2023/02/21 12:39:24;;;;;;;5.50;2.40;;;;;;;6.23;82.82;97652.02;106783;1254;72917;-69
2023/02/21 12:41:58;;;;;;;4.90;2.30;;;;;;;6.12;82.67;97646.36;109053;1254;70267;-70
2023/02/21 12:44:34;;;;;;;3.50;2.20;;;;;;;6.06;83.11;97638.37;108987;1257;72670;-70
2023/02/21 12:47:04;;;;;;;;;;;;;;;5.99;83.26;97644.84;107983;1254;60538;-70
2023/02/21 12:49:38;;;;;;;5.00;2.40;;;;;;;6.11;83.24;97651.07;107930;1254;60486;-69
2023/02/21 12:52:36;;;;;;;3.70;2.40;;;;;;;6.59;83.06;97644.41;107779;1254;71978;-70
2023/02/21 12:55:19;;;;;;;5.80;2.30;;;;;;;7.35;79.91;97644.47;108378;1254;68300;-70
2023/02/21 12:57:55;;;;;;;4.00;2.20;;;;;;;8.40;78.04;97652.67;108991;1254;72305;-70
2023/02/21 13:00:52;;;;;;;4.10;2.20;;;;;;;9.50;72.35;97654.64;108870;1254;58458;-69
2023/02/21 13:03:25;;;;;;;3.00;2.20;;;;;;;10.52;70.21;97648.77;108165;1254;59365;-70
2023/02/21 13:06:02;;;;;;;4.60;2.40;;;;;;;11.14;67.78;97649.77;108191;1254;72974;-69
2023/02/21 13:09:05;;;;;;;4.40;2.40;;;;;;;11.73;64.58;97649.12;107699;1254;70407;-70
2023/02/21 13:11:40;;;;;;;3.30;2.40;;;;;;;12.50;64.62;97654.66;107655;1254;71711;-70
2023/02/21 13:14:15;;;;;;;6.30;3.10;;;;;;;13.23;59.67;97658.47;108034;1254;60227;-70
2023/02/21 13:16:46;;;;;;;4.70;2.60;;;;;;;13.46;59.31;97661.02;107004;1254;60455;-67
2023/02/21 13:19:14;;;;;;;4.70;2.70;;;;;;;13.81;59.50;97663.39;105583;1254;76371;-71
2023/02/21 13:21:51;;;;;;;4.70;2.40;;;;;;;14.24;56.66;97668.00;105315;1254;71029;-74
2023/02/21 13:24:25;;;;;;;4.10;3.10;;;;;;;14.51;56.00;97666.14;105767;1259;72628;-72
2023/02/21 13:26:59;;;;;;;;;;;;;;;14.98;54.94;97666.77;105527;1260;60558;-71
2023/02/21 13:29:28;;;;;;;3.70;2.70;;;;;;;15.26;53.41;97667.18;105795;1258;60534;-70
2023/02/21 13:31:58;;;;;;;5.20;2.80;;;;;;;15.37;51.86;97674.80;105802;1258;74963;-72
2023/02/21 13:34:33;;;;;;;4.20;2.40;;;;;;;15.26;52.02;97666.77;105482;1259;71193;-73
2023/02/21 13:37:04;;;;;;;4.30;2.50;;;;;;;15.47;51.88;97668.70;105708;1255;72313;-72
2023/02/21 13:39:35;;;;;;;2.90;2.20;;;;;;;15.83;50.54;97670.77;105644;1255;60391;-72
2023/02/21 13:42:08;;;;;;;3.50;2.20;;;;;;;16.12;50.27;97674.64;105541;1258;60537;-74
2023/02/21 13:44:53;;;;;;;3.80;2.50;;;;;;;16.22;47.95;97680.89;105775;1261;73576;-73
2023/02/21 13:47:21;;;;;;;4.00;3.00;;;;;;;16.18;47.82;97691.68;105676;1256;71287;-76
2023/02/21 13:49:57;;;;;;;5.10;2.60;;;;;;;15.86;47.76;97679.75;105749;1260;72796;-74
2023/02/21 13:52:31;;;;;;;4.80;2.40;;;;;;;14.95;47.22;97680.83;105718;1259;61206;-74
2023/02/21 13:55:15;;;;;;;4.40;2.40;;;;;;;13.83;48.98;97690.64;105710;1254;61540;-75
2023/02/21 13:57:53;;;;;;;;;;;;;;;12.66;50.81;97697.89;105774;1258;74792;-73
2023/02/21 14:00:24;;;;;;;2.60;1.90;;;;;;;11.65;51.92;97706.54;105754;1259;70660;-72
2023/02/21 14:03:05;;;;;;;3.60;2.20;;;;;;;10.79;53.31;97718.74;105690;1259;71364;-74
2023/02/21 14:05:43;;;;;;;4.70;2.20;;;;;;;9.92;55.14;97718.69;105735;1254;60378;-73
2023/02/21 14:08:30;;;;;;;5.70;2.10;;;;;;;9.23;56.50;97721.02;105733;1254;60480;-75
2023/02/21 14:11:28;;;;;;;5.40;2.70;;;;;;;8.75;58.34;97735.20;105683;1254;73903;-74
2023/02/21 14:14:05;;;;;;;3.40;1.90;;;;;;;8.33;60.76;97738.28;105874;1254;71459;-75
2023/02/21 14:16:47;;;;;;;3.90;2.10;;;;;;;7.98;62.79;97744.62;105759;1254;73596;-75
2023/02/21 14:19:23;;;;;;;3.40;2.30;;;;;;;7.64;64.43;97750.59;105696;1254;60547;-76
2023/02/21 14:21:55;;;;;;;1.70;1.20;;;;;;;7.42;65.85;97749.69;106118;1258;60372;-76
2023/02/21 14:24:29;;;;;;;3.00;1.30;;;;;;;7.20;66.35;97749.94;105885;1254;72990;-74
2023/02/21 14:27:24;;;;;;;3.20;1.60;;;;;;;6.91;67.21;97757.16;105885;1254;69208;-74